Time;durP1;ratioP1;P1;durP2;ratioP2;P2;SDS_P1;SDS_P2;PMS_P1;PMS_P2;Temp;Humidity;BMP_temperature;BMP_pressure;BME280_temperature;BME280_humidity;BME280_pressure;Samples;Min_cycle;Max_cycle;Signal;HPM_P1;HPM_P2
2022/08/25 00:00:19;;;;;;;13.20;11.90;;;20.10;99.90;;;-141.84;73.41;20464.25;4734824;30;20255;-60
2022/08/25 00:02:49;;;;;;;14.27;12.63;;;20.10;99.90;;;-141.84;73.87;20441.88;4749473;30;20727;-62
2022/08/25 00:05:27;;;;;;;13.10;11.77;;;20.10;99.90;;;-141.84;74.15;20443.91;4751791;30;20805;-62
2022/08/25 00:07:57;;;;;;;13.35;11.85;;;20.10;99.90;;;-141.84;73.27;20421.56;4751579;30;20243;-61
2022/08/25 00:10:25;;;;;;;14.68;12.85;;;20.10;99.90;;;-141.84;73.39;20409.38;4751964;30;20335;-61
2022/08/25 00:12:54;;;;;;;13.73;11.80;;;20.20;99.90;;;-141.84;73.85;20340.25;4747267;30;20239;-61
2022/08/25 00:15:23;;;;;;;12.05;10.95;;;20.10;99.90;;;-141.84;74.49;20362.63;4734086;30;20239;-60
2022/08/25 00:17:53;;;;;;;14.13;12.32;;;20.00;99.90;;;-141.84;74.59;20332.13;4734411;30;20217;-60
2022/08/25 00:20:21;;;;;;;13.93;12.50;;;20.00;99.90;;;-141.84;74.44;20324.00;4733812;30;20319;-60
2022/08/25 00:22:50;;;;;;;13.02;11.80;;;20.00;99.90;;;-141.84;74.96;20254.88;4733771;30;20264;-61
2022/08/25 00:25:19;;;;;;;13.82;12.18;;;20.00;99.90;;;-141.84;75.17;20301.63;4733789;30;20244;-60
2022/08/25 00:27:47;;;;;;;13.18;11.90;;;19.90;99.90;;;-141.84;75.52;20212.19;4733662;30;20239;-61
2022/08/25 00:30:17;;;;;;;13.93;12.50;;;19.90;99.90;;;-141.84;75.03;20216.25;4734385;30;20212;-60
2022/08/25 00:32:47;;;;;;;13.52;12.13;;;19.90;99.90;;;-141.84;75.30;20197.97;4748789;30;20260;-60
2022/08/25 00:35:26;;;;;;;14.30;12.85;;;19.90;99.90;;;-141.84;75.75;20165.44;4751162;30;20236;-60
2022/08/25 00:37:55;;;;;;;13.55;12.13;;;19.90;99.90;;;-141.84;75.84;20163.41;4751063;30;20246;-59
2022/08/25 00:40:27;;;;;;;15.80;12.57;;;19.80;99.90;;;-141.84;76.15;20141.06;4751247;29;20347;-59
2022/08/25 00:42:56;;;;;;;16.88;12.88;;;19.70;99.90;;;-141.84;76.29;20094.31;4746854;30;20543;-60
2022/08/25 00:45:25;;;;;;;13.68;12.23;;;19.80;99.90;;;-141.84;76.16;20086.19;4733645;30;20295;-61
2022/08/25 00:47:53;;;;;;;14.60;13.20;;;19.70;99.90;;;-141.84;76.31;20061.78;4734023;30;20213;-59
2022/08/25 00:50:30;;;;;;;14.90;13.15;;;19.70;99.90;;;-141.84;76.32;20080.09;4733584;30;20240;-59
2022/08/25 00:53:03;;;;;;;15.85;12.93;;;19.70;99.90;;;-141.84;76.00;20084.16;4733102;30;20240;-61
2022/08/25 00:55:38;;;;;;;15.95;13.07;;;19.80;99.90;;;-141.84;75.63;20071.97;4733260;30;20259;-61
2022/08/25 00:58:13;;;;;;;16.00;13.07;;;19.80;99.90;;;-141.84;76.44;20029.28;4733302;30;20239;-59
2022/08/25 01:00:47;;;;;;;15.10;13.32;;;19.70;99.90;;;-141.84;76.78;20025.22;4733392;30;20240;-61
2022/08/25 01:03:18;;;;;;;14.27;12.77;;;19.70;99.90;;;-141.84;76.66;19972.38;4716363;30;20202;-60
2022/08/25 01:05:48;;;;;;;18.55;14.57;;;19.70;99.90;;;-141.84;76.44;19976.44;4715308;30;20225;-61
2022/08/25 01:08:20;;;;;;;19.02;14.35;;;19.70;99.90;;;-141.84;76.44;20041.47;4715227;30;20252;-62
2022/08/25 01:10:51;;;;;;;14.73;13.25;;;19.70;99.90;;;-141.84;76.70;19984.56;4715713;30;20271;-60
2022/08/25 01:13:25;;;;;;;17.00;14.07;;;19.60;99.90;;;-141.84;77.14;19964.25;4722683;30;20245;-59
2022/08/25 01:15:57;;;;;;;16.40;14.70;;;19.60;99.90;;;-141.84;77.20;19943.91;4733063;30;20240;-60
2022/08/25 01:18:27;;;;;;;15.50;13.95;;;19.60;99.90;;;-141.84;77.33;19935.78;4733016;29;20204;-60
2022/08/25 01:20:59;;;;;;;15.85;14.20;;;19.50;99.90;;;-141.84;77.25;19903.25;4733391;30;20588;-61
2022/08/25 01:23:27;;;;;;;16.77;15.00;;;19.50;99.90;;;-141.84;77.16;19941.88;4732537;30;20232;-60
2022/08/25 01:26:05;;;;;;;17.65;15.73;;;19.50;99.90;;;-141.84;77.69;19887.00;4733074;30;20339;-60
2022/08/25 01:28:34;;;;;;;16.13;14.32;;;19.50;99.90;;;-141.84;77.69;19893.09;4732800;30;20247;-61
2022/08/25 01:31:02;;;;;;;16.40;14.77;;;19.50;99.90;;;-141.84;77.83;19844.31;4735071;30;20836;-60
2022/08/25 01:33:50;;;;;;;18.20;15.23;;;19.40;99.90;;;-141.84;77.84;19858.56;4750462;30;20304;-60
2022/08/25 01:36:22;;;;;;;17.00;15.27;;;19.40;99.90;;;-141.84;78.50;19872.78;4750578;30;20808;-63
2022/08/25 01:38:51;;;;;;;18.77;14.88;;;19.40;99.90;;;-141.84;78.30;19821.97;4750353;30;20228;-60
2022/08/25 01:41:30;;;;;;;17.67;14.88;;;19.40;99.90;;;-141.84;78.29;19850.41;4750124;29;20246;-59
2022/08/25 01:43:58;;;;;;;20.25;15.43;;;19.40;99.90;;;-141.84;78.22;19826.03;4738150;30;20261;-59
2022/08/25 01:46:27;;;;;;;18.98;15.32;;;19.40;99.90;;;-141.84;78.29;19801.66;4732697;29;20331;-59
2022/08/25 01:48:55;;;;;;;17.08;15.10;;;19.40;99.90;;;-141.84;77.74;19824.00;4732640;30;20298;-60
2022/08/25 01:51:29;;;;;;;16.15;14.45;;;19.40;99.90;;;-141.84;78.11;19805.72;4732618;30;20295;-59
2022/08/25 01:53:57;;;;;;;19.65;16.38;;;19.40;99.90;;;-141.84;78.43;19761.00;4732640;30;20594;-60
2022/08/25 01:56:25;;;;;;;18.60;15.48;;;19.40;99.90;;;-141.84;78.97;19783.34;4732656;30;20240;-60
2022/08/25 01:58:53;;;;;;;17.20;14.75;;;19.30;99.90;;;-141.84;79.38;19720.34;4732570;30;20240;-61
2022/08/25 02:01:25;;;;;;;17.10;14.25;;;19.30;99.90;;;-141.84;79.70;19728.47;4737446;30;20232;-59
2022/08/25 02:03:56;;;;;;;17.77;15.32;;;19.20;99.90;;;-141.84;78.29;19763.03;4749906;30;20242;-60
2022/08/25 02:06:31;;;;;;;16.73;14.65;;;19.30;99.90;;;-141.84;79.12;19736.59;4750686;30;20208;-62
2022/08/25 02:09:04;;;;;;;16.77;14.90;;;19.30;99.90;;;-141.84;79.48;19714.25;4750216;30;20566;-59
2022/08/25 02:11:34;;;;;;;18.65;16.10;;;19.20;99.90;;;-141.84;79.81;19708.16;4749899;30;20618;-60
2022/08/25 02:14:02;;;;;;;18.38;15.57;;;19.20;99.90;;;-141.84;80.55;19657.34;4737098;30;20244;-60
2022/08/25 02:16:35;;;;;;;16.13;14.15;;;19.20;99.90;;;-141.84;80.51;19710.19;4731934;30;20762;-60
2022/08/25 02:19:07;;;;;;;17.98;16.00;;;19.20;99.90;;;-141.84;80.12;19659.38;4732199;30;20261;-60
2022/08/25 02:21:38;;;;;;;18.30;15.65;;;19.10;99.90;;;-141.84;80.52;19639.06;4732304;30;20630;-60
2022/08/25 02:24:08;;;;;;;16.80;15.10;;;19.10;99.90;;;-141.84;80.36;19620.78;4732312;30;20193;-61
2022/08/25 02:26:36;;;;;;;16.63;14.88;;;19.10;99.90;;;-141.84;80.23;19641.09;4732292;30;20244;-59
2022/08/25 02:29:06;;;;;;;18.77;15.50;;;19.20;99.90;;;-141.84;79.94;19606.53;4732207;30;20320;-61
2022/08/25 02:31:35;;;;;;;17.00;14.90;;;19.10;99.90;;;-141.84;80.50;19624.84;4738189;30;20315;-59
2022/08/25 02:34:05;;;;;;;17.77;14.95;;;19.10;99.90;;;-141.84;81.27;19590.28;4749464;30;20317;-60
2022/08/25 02:36:34;;;;;;;18.23;16.25;;;19.00;99.90;;;-141.84;81.63;19549.63;4749797;30;20327;-60
2022/08/25 02:39:05;;;;;;;18.73;15.80;;;19.00;99.90;;;-141.84;81.70;19541.50;4749573;30;20230;-61
2022/08/25 02:41:33;;;;;;;16.88;14.68;;;19.00;99.90;;;-141.84;82.03;19537.44;4749471;30;20725;-61
2022/08/25 02:44:03;;;;;;;18.00;16.10;;;19.00;99.90;;;-141.84;81.97;19519.16;4737326;30;20329;-59
2022/08/25 02:46:32;;;;;;;18.70;16.27;;;18.90;99.90;;;-141.84;82.08;19511.03;4732166;30;20240;-60
2022/08/25 02:49:01;;;;;;;21.25;16.00;;;18.90;99.90;;;-141.84;82.23;19500.88;4731945;30;20603;-61
2022/08/25 02:51:30;;;;;;;18.45;16.52;;;18.80;99.90;;;-141.84;82.97;19488.69;4732057;30;20638;-59
2022/08/25 02:54:01;;;;;;;18.45;16.65;;;18.90;99.90;;;-141.84;82.61;19498.84;4731917;30;20308;-61
2022/08/25 02:56:32;;;;;;;19.27;17.27;;;18.80;99.90;;;-141.84;82.74;19439.91;4731825;30;20279;-60
2022/08/25 02:59:01;;;;;;;20.98;16.73;;;18.80;99.90;;;-141.84;82.84;19441.94;4731794;30;20272;-60
2022/08/25 03:01:31;;;;;;;17.85;16.13;;;18.80;99.90;;;-141.84;83.05;19437.88;4737578;30;20232;-61
2022/08/25 03:04:00;;;;;;;18.15;15.82;;;18.80;99.90;;;-141.84;83.24;19413.47;4749302;30;20740;-60
2022/08/25 03:06:29;;;;;;;22.55;17.25;;;18.70;99.90;;;-141.84;83.10;19399.25;4749558;30;20302;-60
2022/08/25 03:08:57;;;;;;;20.45;16.73;;;18.80;99.90;;;-141.84;82.56;19425.69;4749594;30;20220;-61
2022/08/25 03:11:25;;;;;;;22.05;17.08;;;18.80;99.90;;;-141.84;82.72;19456.16;4749235;30;20236;-61
2022/08/25 03:13:55;;;;;;;19.75;17.73;;;18.80;99.90;;;-141.84;82.50;19427.72;4737736;30;20244;-62
2022/08/25 03:16:24;;;;;;;21.27;17.25;;;18.80;99.90;;;-141.84;82.49;19450.06;4731849;30;20320;-60
2022/08/25 03:18:55;;;;;;;21.38;16.67;;;18.80;99.90;;;-141.84;83.05;19437.88;4732096;30;20267;-61
2022/08/25 03:21:24;;;;;;;19.52;16.88;;;18.80;99.90;;;-141.84;83.84;19413.47;4731365;30;20305;-60
2022/08/25 03:23:52;;;;;;;19.65;16.63;;;18.70;99.90;;;-141.84;84.03;19407.38;4732006;30;20304;-59
2022/08/25 03:29:09;;;;;;;18.95;16.77;;;18.70;99.90;;;-141.84;84.12;19356.59;4733559;30;20241;-60
2022/08/25 03:31:38;;;;;;;18.40;16.38;;;18.70;99.90;;;-141.84;84.65;19350.50;4741037;30;20800;-59
2022/08/25 03:34:08;;;;;;;19.52;16.02;;;18.70;99.90;;;-141.84;84.70;19324.06;4752457;30;20319;-60
2022/08/25 03:36:36;;;;;;;19.80;17.20;;;18.70;99.90;;;-141.84;83.90;19334.22;4752234;30;20236;-59
2022/08/25 03:39:07;;;;;;;18.33;16.50;;;18.70;99.90;;;-141.84;83.91;19338.28;4752191;30;20260;-60
2022/08/25 03:41:35;;;;;;;22.23;17.23;;;18.70;99.90;;;-141.84;83.13;19346.44;4751813;30;20236;-59
2022/08/25 03:44:06;;;;;;;20.25;17.63;;;18.80;99.90;;;-141.84;83.70;19320.00;4739560;30;20331;-61
2022/08/25 03:46:39;;;;;;;20.58;17.42;;;18.70;99.90;;;-141.84;84.42;19303.75;4734224;30;20254;-61
2022/08/25 03:49:12;;;;;;;18.70;16.77;;;18.70;99.90;;;-141.84;85.47;19293.59;4734595;30;20320;-60
2022/08/25 03:51:44;;;;;;;19.63;17.63;;;18.60;99.90;;;-141.84;85.92;19275.31;4734432;30;20236;-60
2022/08/25 03:54:15;;;;;;;19.45;17.35;;;18.60;99.90;;;-141.84;85.24;19259.03;4734738;30;20284;-61
2022/08/25 03:56:44;;;;;;;19.58;17.23;;;18.60;99.90;;;-141.84;85.03;19263.09;4734306;30;20268;-60
2022/08/25 03:59:13;;;;;;;20.02;16.48;;;18.60;99.90;;;-141.84;85.45;19250.91;4734056;30;20615;-62
2022/08/25 04:01:45;;;;;;;18.63;16.58;;;18.60;99.90;;;-141.84;85.53;19228.56;4741002;30;20250;-62
2022/08/25 04:04:19;;;;;;;19.35;17.40;;;18.60;99.90;;;-141.84;85.66;19250.91;4751935;30;20235;-61
2022/08/25 04:06:47;;;;;;;19.25;17.20;;;18.50;99.90;;;-141.84;85.98;19208.25;4751862;30;20238;-60
2022/08/25 04:09:15;;;;;;;20.05;17.95;;;18.60;99.90;;;-141.84;86.00;19238.72;4752053;30;20304;-59
2022/08/25 04:11:43;;;;;;;19.13;17.20;;;18.50;99.90;;;-141.84;86.18;19220.44;4751532;29;20323;-60
2022/08/25 04:14:12;;;;;;;23.05;17.77;;;18.50;99.90;;;-141.84;86.33;19220.44;4737982;30;20244;-60
2022/08/25 04:16:45;;;;;;;23.55;18.48;;;18.50;99.90;;;-141.84;86.80;19189.97;4733776;30;20339;-61
2022/08/25 04:19:14;;;;;;;20.60;18.08;;;18.40;99.90;;;-141.84;86.80;19159.47;4733990;30;20240;-59
2022/08/25 04:21:42;;;;;;;20.30;17.90;;;18.40;99.90;;;-141.84;86.91;19196.06;4733896;30;20634;-60
2022/08/25 04:24:13;;;;;;;19.50;17.30;;;18.40;99.90;;;-141.84;87.15;19173.69;4734268;30;20209;-60
2022/08/25 04:26:44;;;;;;;21.10;18.63;;;18.40;99.90;;;-141.84;86.89;19143.22;4733556;30;20236;-63
2022/08/25 04:29:16;;;;;;;22.05;17.40;;;18.50;99.90;;;-141.84;86.11;19202.16;4733940;30;20324;-60
2022/08/25 04:31:49;;;;;;;20.02;18.02;;;18.50;99.90;;;-141.84;86.32;19171.66;4740946;30;20240;-59
2022/08/25 04:34:19;;;;;;;19.48;17.33;;;18.50;99.90;;;-141.84;86.65;19167.59;4751388;30;20315;-61
2022/08/25 04:36:59;;;;;;;20.90;18.23;;;18.50;99.90;;;-141.84;86.69;19118.84;4751348;29;20244;-59
2022/08/25 04:39:27;;;;;;;20.90;18.15;;;18.50;99.90;;;-141.84;86.78;19147.28;4750068;30;20315;-60
2022/08/25 04:41:55;;;;;;;22.13;17.95;;;18.60;99.90;;;-141.84;86.54;19159.47;4751866;30;20212;-63
2022/08/25 04:44:24;;;;;;;23.08;18.48;;;18.60;99.90;;;-141.84;86.50;19185.88;4736217;29;20320;-59
2022/08/25 04:46:53;;;;;;;19.75;17.60;;;18.60;99.90;;;-141.84;85.70;19198.09;4733323;30;20229;-60
2022/08/25 04:49:22;;;;;;;19.23;17.05;;;18.80;99.90;;;-141.84;85.61;19167.59;4733339;30;20241;-61
2022/08/25 04:51:50;;;;;;;19.35;17.35;;;18.70;99.90;;;-141.84;85.43;19177.75;4733245;30;20232;-61
2022/08/25 04:54:20;;;;;;;20.10;16.83;;;18.70;99.90;;;-141.84;85.86;19165.56;4733809;30;20221;-60
2022/08/25 04:56:50;;;;;;;21.35;18.13;;;18.70;99.90;;;-141.84;85.42;19179.78;4733414;30;20240;-60
2022/08/25 04:59:26;;;;;;;19.15;17.10;;;18.80;99.90;;;-141.84;85.48;19171.66;4733108;30;20328;-59
2022/08/25 05:02:01;;;;;;;20.73;18.30;;;18.80;99.90;;;-141.84;83.87;19240.75;4742052;30;20323;-60
2022/08/25 05:04:33;;;;;;;20.10;17.70;;;18.90;99.90;;;-141.84;83.92;19230.59;4751050;30;20542;-58
2022/08/25 05:07:02;;;;;;;19.67;17.67;;;18.90;99.90;;;-141.84;83.61;19230.59;4750515;30;20250;-59
2022/08/25 05:09:31;;;;;;;20.45;18.17;;;19.00;99.90;;;-141.84;83.27;19216.38;4750681;30;20303;-59
2022/08/25 05:12:01;;;;;;;23.88;18.02;;;19.10;99.90;;;-141.84;82.41;19232.63;4751175;30;20250;-59
2022/08/25 05:14:30;;;;;;;20.75;18.48;;;19.10;99.90;;;-141.84;81.96;19297.66;4734712;30;20729;-61
2022/08/25 05:17:00;;;;;;;19.65;17.58;;;19.20;99.90;;;-141.84;81.38;19281.41;4732856;30;20252;-60
2022/08/25 05:19:28;;;;;;;20.15;17.17;;;19.30;99.90;;;-141.84;81.24;19301.72;4733039;30;20243;-60
2022/08/25 05:21:56;;;;;;;22.80;17.55;;;19.40;99.90;;;-141.84;80.15;19395.19;4732767;30;20237;-59
2022/08/25 05:24:26;;;;;;;19.48;17.25;;;19.50;99.90;;;-141.84;78.82;19411.44;4733104;30;20217;-60
2022/08/25 05:26:55;;;;;;;18.95;16.98;;;19.70;99.90;;;-141.84;78.64;19446.00;4734195;30;20224;-60
2022/08/25 05:29:23;;;;;;;18.38;16.40;;;19.90;99.90;;;-141.84;75.77;19559.81;4733487;30;20510;-60
2022/08/25 05:31:52;;;;;;;19.42;17.33;;;20.10;99.90;;;-141.84;75.70;19561.84;4739341;30;20338;-60
2022/08/25 05:34:21;;;;;;;20.35;16.88;;;20.30;99.90;;;-141.84;75.47;19645.16;4733654;30;20244;-62
2022/08/25 05:36:50;;;;;;;18.50;16.63;;;20.40;99.90;;;-141.84;75.02;19635.00;4733293;30;20327;-59
2022/08/25 05:39:18;;;;;;;23.17;16.90;;;20.50;99.90;;;-141.84;74.25;19683.78;4733434;30;20283;-59
2022/08/25 05:41:46;;;;;;;19.40;17.40;;;20.60;99.90;;;-141.84;73.96;19702.06;4733205;30;20229;-59
2022/08/25 05:44:16;;;;;;;22.95;17.83;;;20.70;99.90;;;-141.84;73.90;19716.28;4733243;30;20243;-60
2022/08/25 05:46:49;;;;;;;20.25;15.50;;;20.70;99.90;;;-141.84;74.08;19712.22;4733324;30;20240;-58
2022/08/25 05:49:17;;;;;;;19.45;16.48;;;20.70;99.90;;;-141.84;73.87;19758.97;4733248;30;20678;-59
2022/08/25 05:51:47;;;;;;;17.88;16.00;;;20.80;99.90;;;-141.84;73.41;19748.81;4732924;30;20312;-60
2022/08/25 05:54:15;;;;;;;19.05;16.77;;;21.00;99.90;;;-141.84;73.38;19789.44;4733399;30;20741;-60
2022/08/25 05:56:45;;;;;;;19.90;16.60;;;21.00;99.90;;;-141.84;72.06;19848.38;4733287;30;20283;-60
2022/08/25 05:59:13;;;;;;;17.85;15.95;;;21.20;99.90;;;-141.84;72.23;19856.53;4733165;30;20315;-60
2022/08/25 06:04:27;;;;;;;22.25;17.02;;;21.30;99.90;;;-141.84;70.92;19982.53;4750793;30;20246;-60
2022/08/25 06:06:56;;;;;;;22.85;17.80;;;21.40;99.90;;;-141.84;70.71;19986.59;4750632;30;20232;-60
2022/08/25 06:09:25;;;;;;;19.25;16.80;;;21.50;99.90;;;-141.84;70.59;20015.03;4750466;30;20212;-61
2022/08/25 06:11:54;;;;;;;18.75;16.80;;;21.60;99.90;;;-141.84;70.48;19988.63;4742787;30;20653;-59
2022/08/25 06:14:23;;;;;;;19.50;17.52;;;21.50;99.90;;;-141.84;70.92;20025.22;4732880;30;20258;-60
2022/08/25 06:16:52;;;;;;;21.67;16.25;;;21.50;99.90;;;-141.84;70.93;19990.66;4732691;30;20225;-60
2022/08/25 06:19:21;;;;;;;19.05;16.67;;;21.50;99.90;;;-141.84;71.27;19984.56;4732986;30;20314;-61
2022/08/25 06:21:54;;;;;;;16.98;15.30;;;21.50;99.90;;;-141.84;71.50;19986.59;4733161;30;20236;-61
2022/08/25 06:24:27;;;;;;;18.83;16.25;;;21.50;99.90;;;-141.84;71.64;20027.25;4732484;30;20730;-60
2022/08/25 06:26:56;;;;;;;17.08;15.27;;;21.70;99.90;;;-141.84;70.16;20069.94;4733231;30;20220;-61
2022/08/25 06:29:25;;;;;;;23.08;17.50;;;21.70;99.90;;;-141.84;68.72;20177.66;4732725;30;20247;-59
2022/08/25 06:31:53;;;;;;;19.52;16.60;;;21.90;99.90;;;-141.84;69.60;20153.25;4740862;30;20234;-60
2022/08/25 06:34:21;;;;;;;18.58;16.67;;;21.90;99.90;;;-141.84;69.25;20159.34;4750316;30;20263;-60
2022/08/25 06:36:52;;;;;;;18.90;16.90;;;21.90;99.90;;;-141.84;69.13;20179.69;4750526;30;20242;-61
2022/08/25 06:39:20;;;;;;;19.02;16.90;;;22.00;99.90;;;-141.84;69.27;20173.59;4749776;30;20242;-60
2022/08/25 06:41:53;;;;;;;19.38;17.35;;;22.00;99.90;;;-141.84;69.46;20216.25;4750916;30;20307;-60
2022/08/25 06:44:23;;;;;;;17.85;15.73;;;21.90;99.90;;;-141.84;69.41;20175.63;4735453;30;20319;-59
2022/08/25 06:46:51;;;;;;;20.05;17.77;;;22.10;99.90;;;-141.84;69.04;20171.56;4732647;30;20237;-59
2022/08/25 06:49:20;;;;;;;19.77;16.60;;;22.10;99.90;;;-141.84;69.81;20191.88;4732725;30;20236;-59
2022/08/25 06:51:49;;;;;;;18.73;16.73;;;22.10;99.90;;;-141.84;69.15;20222.38;4732687;30;20236;-59
2022/08/25 06:54:17;;;;;;;17.75;15.18;;;22.20;99.90;;;-141.84;69.26;20254.88;4732682;30;20223;-61
2022/08/25 06:56:46;;;;;;;17.70;15.85;;;22.20;99.90;;;-141.84;68.57;20267.09;4732901;30;20702;-60
2022/08/25 06:59:18;;;;;;;20.85;17.73;;;22.30;99.90;;;-141.84;68.61;20258.94;4732462;30;20357;-59
2022/08/25 07:01:46;;;;;;;19.85;17.40;;;22.40;99.90;;;-141.84;68.41;20273.19;4740405;30;20235;-59
2022/08/25 07:04:17;;;;;;;21.60;18.15;;;22.40;99.90;;;-141.84;68.20;20317.91;4752502;30;20247;-59
2022/08/25 07:06:45;;;;;;;19.15;16.23;;;22.40;99.90;;;-141.84;68.71;20279.28;4753725;30;20238;-60
2022/08/25 07:09:14;;;;;;;18.20;16.38;;;22.40;99.90;;;-141.84;69.10;20275.22;4753273;30;20575;-60
2022/08/25 07:11:44;;;;;;;20.63;17.95;;;22.40;99.90;;;-141.84;68.18;20309.75;4745104;30;20226;-58
2022/08/25 07:14:18;;;;;;;20.92;17.10;;;22.50;99.90;;;-141.84;68.12;20334.16;4739437;30;20233;-58
2022/08/25 07:16:46;;;;;;;20.60;16.95;;;22.60;99.90;;;-141.84;68.36;20326.03;4735664;30;20239;-58
2022/08/25 07:19:20;;;;;;;23.58;18.45;;;22.70;99.90;;;-141.84;68.10;20387.00;4735277;30;20236;-58
2022/08/25 07:21:52;;;;;;;22.85;17.58;;;22.70;99.90;;;-141.84;68.11;20334.16;4735477;30;20224;-58
2022/08/25 07:24:21;;;;;;;20.20;16.75;;;22.70;99.90;;;-141.84;68.02;20344.31;4735146;30;20205;-57
2022/08/25 07:26:50;;;;;;;18.10;16.27;;;22.70;99.90;;;-141.84;68.06;20350.41;4735950;30;20568;-59
2022/08/25 07:29:23;;;;;;;18.60;16.80;;;22.80;99.90;;;-141.84;67.36;20460.19;4735010;30;20236;-58
2022/08/25 07:32:00;;;;;;;18.40;16.42;;;22.90;99.90;;;-141.84;66.79;20498.81;4745088;30;20208;-59
2022/08/25 07:37:22;;;;;;;17.35;14.68;;;23.30;99.90;;;-141.84;65.27;20637.03;4752859;30;20196;-59
2022/08/25 07:40:16;;;;;;;22.48;15.63;;;23.50;99.90;;;-141.84;64.67;20700.03;4753288;30;20238;-60
2022/08/25 07:42:45;;;;;;;16.80;15.25;;;23.70;99.90;;;-141.84;63.42;20791.53;4750317;30;20305;-62
2022/08/25 07:45:16;;;;;;;15.93;14.20;;;23.80;99.90;;;-141.84;63.50;20771.19;4735281;30;20590;-62
2022/08/25 07:47:50;;;;;;;17.52;14.35;;;23.80;99.90;;;-141.84;63.13;20844.38;4735676;30;20287;-61
2022/08/25 07:50:19;;;;;;;17.17;14.68;;;23.90;99.90;;;-141.84;63.03;20826.09;4735291;30;20666;-62
2022/08/25 07:52:48;;;;;;;19.10;14.23;;;23.90;99.90;;;-141.84;62.72;20891.13;4735471;30;20343;-62
2022/08/25 07:55:23;;;;;;;14.65;13.25;;;24.00;99.90;;;-141.84;60.78;21059.88;4734910;30;20674;-59
2022/08/25 07:57:52;;;;;;;13.70;12.30;;;24.30;99.90;;;-141.84;59.52;21271.31;4735474;30;20219;-59
2022/08/25 08:00:29;;;;;;;13.88;11.80;;;24.60;99.90;;;-141.84;59.20;21293.69;4735267;30;20237;-58
2022/08/25 08:02:59;;;;;;;17.25;13.07;;;24.80;99.90;;;-141.84;58.36;21419.72;4751766;30;20212;-60
2022/08/25 08:05:31;;;;;;;14.20;12.10;;;25.00;99.90;;;-141.84;57.80;21511.22;4752511;30;20215;-60
2022/08/25 08:08:01;;;;;;;16.23;12.75;;;25.20;99.90;;;-141.84;56.16;21643.38;4752876;30;20212;-59
2022/08/25 08:10:30;;;;;;;15.10;12.32;;;25.60;99.90;;;-141.84;56.20;21619.00;4735439;30;20201;-60
2022/08/25 08:13:19;;;;;;;16.38;11.70;;;25.50;99.90;;;-141.84;57.88;21527.50;4734833;30;20241;-61
2022/08/25 08:15:49;;;;;;;15.18;11.65;;;25.20;99.90;;;-141.84;58.25;21488.88;4734886;30;20213;-59
2022/08/25 08:18:17;;;;;;;17.80;11.95;;;25.10;99.90;;;-141.84;58.49;21472.59;4735109;30;20217;-60
2022/08/25 08:20:47;;;;;;;14.32;12.27;;;25.10;99.90;;;-141.84;59.17;21440.06;4734713;30;20761;-59
2022/08/25 08:23:17;;;;;;;16.45;12.07;;;25.00;99.90;;;-141.84;59.00;21444.13;4734762;30;20288;-60
2022/08/25 08:25:45;;;;;;;13.63;11.68;;;25.00;99.90;;;-141.84;58.25;21492.94;4733946;30;20638;-60
2022/08/25 08:28:13;;;;;;;14.13;11.20;;;25.10;99.90;;;-141.84;58.04;21519.34;4733737;30;20256;-60
2022/08/25 08:30:41;;;;;;;15.32;11.50;;;25.20;99.90;;;-141.84;56.95;21610.84;4733909;30;20637;-59
2022/08/25 08:33:24;;;;;;;12.23;10.93;;;25.40;99.90;;;-141.84;56.50;21708.47;4716733;30;20197;-59
2022/08/25 08:36:00;;;;;;;16.33;11.10;;;25.60;99.90;;;-141.84;55.79;21751.16;4716924;30;20256;-60
2022/08/25 08:38:33;;;;;;;13.77;11.93;;;25.90;99.90;;;-141.84;55.22;21820.28;4716192;30;20248;-60
2022/08/25 08:45:10;;;;;;;12.82;11.52;;;26.00;99.90;;;-141.84;55.33;21850.78;4733290;30;20268;-61
2022/08/25 08:47:59;;;;;;;13.63;11.10;;;26.20;99.90;;;-141.84;55.10;21850.78;4732271;30;20229;-60
2022/08/25 08:50:40;;;;;;;14.88;11.57;;;26.10;99.90;;;-141.84;56.12;21728.78;4733704;30;20232;-60
2022/08/25 08:53:16;;;;;;;16.85;12.35;;;25.80;99.90;;;-141.84;56.37;21749.13;4733956;30;20240;-60
2022/08/25 08:55:49;;;;;;;15.50;11.88;;;25.80;99.90;;;-141.84;56.42;21738.97;4733960;30;20242;-60
2022/08/25 08:58:23;;;;;;;21.02;12.95;;;25.80;99.90;;;-141.84;56.72;21702.34;4734114;30;20643;-61
2022/08/25 09:00:58;;;;;;;15.98;12.40;;;25.70;99.90;;;-141.84;57.20;21641.34;4735118;30;20247;-60
2022/08/25 09:03:38;;;;;;;16.52;13.32;;;25.60;99.90;;;-141.84;57.95;21623.06;4751368;30;20745;-60
2022/08/25 09:06:17;;;;;;;14.73;12.43;;;25.50;99.90;;;-141.84;58.27;21627.13;4751666;30;20560;-62
2022/08/25 09:08:45;;;;;;;19.58;12.40;;;25.50;99.90;;;-141.84;57.37;21651.53;4751297;30;20632;-60
2022/08/25 09:11:30;;;;;;;19.10;11.30;;;25.50;99.90;;;-141.84;56.62;21716.59;4751043;30;20273;-62
2022/08/25 09:14:18;;;;;;;14.57;12.13;;;25.60;99.90;;;-141.84;56.63;21724.72;4739205;30;20248;-61
2022/08/25 09:16:58;;;;;;;16.27;12.40;;;25.80;99.90;;;-141.84;56.26;21765.38;4733447;30;20232;-64
2022/08/25 09:19:59;;;;;;;17.25;12.95;;;25.90;99.90;;;-141.84;56.73;21736.94;4732800;30;20255;-63
2022/08/25 09:22:46;;;;;;;16.83;12.30;;;25.80;99.90;;;-141.84;57.15;21730.81;4733287;30;20262;-64
2022/08/25 09:28:09;;;;;;;16.10;12.95;;;25.80;99.90;;;-141.84;55.47;21844.69;4730965;30;20236;-62
2022/08/25 09:30:46;;;;;;;17.05;12.52;;;26.00;99.90;;;-141.84;54.20;22017.53;4734168;30;20317;-63
2022/08/25 09:34:10;;;;;;;16.55;12.55;;;26.40;99.90;;;-141.84;53.99;22058.22;4729619;30;20216;-59
2022/08/25 09:36:39;;;;;;;16.80;12.35;;;26.60;99.90;;;-141.84;53.63;22098.88;4730059;30;20233;-61
2022/08/25 09:39:09;;;;;;;17.25;12.02;;;26.80;99.90;;;-141.84;53.20;22135.47;4732161;30;20339;-60
2022/08/25 09:41:46;;;;;;;12.63;11.10;;;26.90;99.90;;;-141.84;52.81;22153.78;4733288;30;20315;-59
2022/08/25 09:44:23;;;;;;;14.45;11.27;;;27.00;99.90;;;-141.84;52.66;22220.91;4733138;30;20241;-59
2022/08/25 09:47:03;;;;;;;14.25;11.88;;;27.20;99.90;;;-141.84;52.13;22241.22;4732857;30;20240;-60
2022/08/25 09:49:39;;;;;;;17.50;12.65;;;27.30;99.90;;;-141.84;52.92;22135.47;4732644;30;20327;-59
2022/08/25 09:52:34;;;;;;;21.25;13.63;;;27.20;99.90;;;-141.84;53.10;22131.41;4732923;30;20265;-61
2022/08/25 09:55:30;;;;;;;17.98;12.00;;;27.10;99.90;;;-141.84;51.57;22237.16;4732822;30;20312;-59
2022/08/25 09:58:00;;;;;;;16.60;12.10;;;27.20;99.90;;;-141.84;51.54;22261.56;4733086;30;20237;-60
2022/08/25 10:00:37;;;;;;;15.85;11.18;;;27.30;99.90;;;-141.84;51.64;22330.72;4733011;30;20268;-59
2022/08/25 10:03:11;;;;;;;15.88;12.15;;;27.40;99.90;;;-141.84;50.65;22408.00;4732751;30;20209;-59
2022/08/25 10:05:59;;;;;;;18.73;12.82;;;27.50;99.90;;;-141.84;50.24;22493.41;4733155;30;20196;-61
2022/08/25 10:08:34;;;;;;;17.23;11.70;;;27.70;99.90;;;-141.84;49.82;22513.75;4740183;30;20236;-60
2022/08/25 10:11:11;;;;;;;19.83;12.20;;;27.90;99.90;;;-141.84;50.93;22414.09;4750413;30;20235;-59
2022/08/25 10:13:45;;;;;;;16.90;11.57;;;27.70;99.90;;;-141.84;51.48;22308.34;4750202;30;20721;-64
2022/08/25 10:16:23;;;;;;;16.30;12.30;;;27.60;99.90;;;-141.84;51.75;22269.69;4750352;30;20278;-63
2022/08/25 10:19:05;;;;;;;16.58;13.38;;;27.40;99.90;;;-141.84;52.76;22182.25;4750247;30;20231;-63
2022/08/25 10:21:36;;;;;;;18.85;12.02;;;27.10;99.90;;;-141.84;53.08;22178.19;4750081;30;20239;-62
2022/08/25 10:24:07;;;;;;;21.40;12.85;;;26.90;99.90;;;-141.84;53.49;22143.63;4750258;30;20636;-63
2022/08/25 10:26:52;;;;;;;17.45;12.57;;;26.80;99.90;;;-141.84;53.98;22117.19;4750895;30;20196;-58